sensor_id;sensor_type;location;lat;lon;timestamp;temperature;humidity
26035;DHT22;13809;48.632;11.576;2022-08-30T00:01:24;21.90;36.80
26035;DHT22;13809;48.632;11.576;2022-08-30T00:06:29;21.80;36.70
26035;DHT22;13809;48.632;11.576;2022-08-30T00:11:32;21.60;36.80
26035;DHT22;13809;48.632;11.576;2022-08-30T00:16:35;21.40;36.80
26035;DHT22;13809;48.632;11.576;2022-08-30T00:21:40;21.40;37.00
26035;DHT22;13809;48.632;11.576;2022-08-30T00:26:43;21.30;37.60
26035;DHT22;13809;48.632;11.576;2022-08-30T00:31:46;21.30;37.40
26035;DHT22;13809;48.632;11.576;2022-08-30T00:36:51;21.30;37.40
26035;DHT22;13809;48.632;11.576;2022-08-30T00:41:54;21.30;37.70
26035;DHT22;13809;48.632;11.576;2022-08-30T00:46:57;21.30;37.30
26035;DHT22;13809;48.632;11.576;2022-08-30T00:52:03;21.20;37.20
26035;DHT22;13809;48.632;11.576;2022-08-30T00:57:09;21.20;37.60
26035;DHT22;13809;48.632;11.576;2022-08-30T01:02:13;21.10;37.50
26035;DHT22;13809;48.632;11.576;2022-08-30T01:07:19;21.10;37.50
26035;DHT22;13809;48.632;11.576;2022-08-30T01:12:22;20.90;37.30
26035;DHT22;13809;48.632;11.576;2022-08-30T01:17:26;20.70;37.10
26035;DHT22;13809;48.632;11.576;2022-08-30T01:22:36;20.50;36.90
26035;DHT22;13809;48.632;11.576;2022-08-30T01:27:44;20.50;37.90
26035;DHT22;13809;48.632;11.576;2022-08-30T01:32:51;20.40;37.90
26035;DHT22;13809;48.632;11.576;2022-08-30T01:37:58;20.40;37.30
26035;DHT22;13809;48.632;11.576;2022-08-30T01:43:02;20.40;37.50
26035;DHT22;13809;48.632;11.576;2022-08-30T01:48:06;20.40;38.00
26035;DHT22;13809;48.632;11.576;2022-08-30T01:53:09;20.30;37.60
26035;DHT22;13809;48.632;11.576;2022-08-30T01:58:15;20.30;37.50
26035;DHT22;13809;48.632;11.576;2022-08-30T02:03:18;20.30;37.90
26035;DHT22;13809;48.632;11.576;2022-08-30T02:08:21;20.20;37.50
26035;DHT22;13809;48.632;11.576;2022-08-30T02:13:27;20.10;37.60
26035;DHT22;13809;48.632;11.576;2022-08-30T02:18:32;20.10;38.00
26035;DHT22;13809;48.632;11.576;2022-08-30T02:23:36;20.00;38.00
26035;DHT22;13809;48.632;11.576;2022-08-30T02:28:40;19.90;37.90
26035;DHT22;13809;48.632;11.576;2022-08-30T02:33:51;19.80;38.30
26035;DHT22;13809;48.632;11.576;2022-08-30T02:38:55;19.80;38.10
26035;DHT22;13809;48.632;11.576;2022-08-30T02:43:59;19.80;38.00
26035;DHT22;13809;48.632;11.576;2022-08-30T02:49:03;19.80;38.20
26035;DHT22;13809;48.632;11.576;2022-08-30T02:54:27;19.70;38.00
26035;DHT22;13809;48.632;11.576;2022-08-30T02:59:34;19.70;38.00
26035;DHT22;13809;48.632;11.576;2022-08-30T03:04:42;19.70;38.30
26035;DHT22;13809;48.632;11.576;2022-08-30T03:09:45;19.70;38.10
26035;DHT22;13809;48.632;11.576;2022-08-30T03:14:50;19.70;38.10
26035;DHT22;13809;48.632;11.576;2022-08-30T03:19:53;19.70;38.40
26035;DHT22;13809;48.632;11.576;2022-08-30T03:24:57;19.60;38.10
26035;DHT22;13809;48.632;11.576;2022-08-30T03:30:03;19.60;38.10
26035;DHT22;13809;48.632;11.576;2022-08-30T03:35:07;19.50;38.40
26035;DHT22;13809;48.632;11.576;2022-08-30T03:40:12;19.50;38.40
26035;DHT22;13809;48.632;11.576;2022-08-30T03:45:18;19.50;38.70
26035;DHT22;13809;48.632;11.576;2022-08-30T03:50:21;19.40;38.80
26035;DHT22;13809;48.632;11.576;2022-08-30T03:55:25;19.40;38.50
26035;DHT22;13809;48.632;11.576;2022-08-30T04:00:30;19.40;38.60
26035;DHT22;13809;48.632;11.576;2022-08-30T04:05:33;19.30;38.80
26035;DHT22;13809;48.632;11.576;2022-08-30T04:10:36;19.30;38.40
26035;DHT22;13809;48.632;11.576;2022-08-30T04:15:41;19.30;38.50
26035;DHT22;13809;48.632;11.576;2022-08-30T04:20:45;19.20;38.50
26035;DHT22;13809;48.632;11.576;2022-08-30T04:25:48;19.10;38.30
26035;DHT22;13809;48.632;11.576;2022-08-30T04:30:53;19.10;38.80
26035;DHT22;13809;48.632;11.576;2022-08-30T04:36:00;19.00;39.10
26035;DHT22;13809;48.632;11.576;2022-08-30T04:41:09;19.00;39.50
26035;DHT22;13809;48.632;11.576;2022-08-30T04:46:14;19.00;39.30
26035;DHT22;13809;48.632;11.576;2022-08-30T04:51:17;19.00;39.20
26035;DHT22;13809;48.632;11.576;2022-08-30T04:56:22;19.10;39.10
26035;DHT22;13809;48.632;11.576;2022-08-30T05:01:30;19.10;39.30
26035;DHT22;13809;48.632;11.576;2022-08-30T05:06:45;19.00;39.60
26035;DHT22;13809;48.632;11.576;2022-08-30T05:11:49;19.00;39.00
26035;DHT22;13809;48.632;11.576;2022-08-30T05:16:54;19.00;39.20
26035;DHT22;13809;48.632;11.576;2022-08-30T05:21:57;18.90;39.50
26035;DHT22;13809;48.632;11.576;2022-08-30T05:27:00;18.90;39.30
26035;DHT22;13809;48.632;11.576;2022-08-30T05:32:05;18.90;39.50
26035;DHT22;13809;48.632;11.576;2022-08-30T05:37:09;18.80;40.10
26035;DHT22;13809;48.632;11.576;2022-08-30T05:42:13;18.80;39.90
26035;DHT22;13809;48.632;11.576;2022-08-30T05:47:19;18.70;39.90
26035;DHT22;13809;48.632;11.576;2022-08-30T05:52:23;18.60;40.90
26035;DHT22;13809;48.632;11.576;2022-08-30T05:57:26;18.60;40.60
26035;DHT22;13809;48.632;11.576;2022-08-30T06:02:31;18.60;41.00
26035;DHT22;13809;48.632;11.576;2022-08-30T06:07:34;18.70;41.60
26035;DHT22;13809;48.632;11.576;2022-08-30T06:12:37;18.80;41.50
26035;DHT22;13809;48.632;11.576;2022-08-30T06:17:42;18.90;41.80
26035;DHT22;13809;48.632;11.576;2022-08-30T06:22:45;19.00;42.60
26035;DHT22;13809;48.632;11.576;2022-08-30T06:27:48;19.10;42.20
26035;DHT22;13809;48.632;11.576;2022-08-30T06:32:59;19.20;42.60
26035;DHT22;13809;48.632;11.576;2022-08-30T06:38:02;19.30;43.20
26035;DHT22;13809;48.632;11.576;2022-08-30T06:43:05;19.40;42.80
26035;DHT22;13809;48.632;11.576;2022-08-30T06:48:10;19.50;42.60
26035;DHT22;13809;48.632;11.576;2022-08-30T06:53:13;19.60;43.30
26035;DHT22;13809;48.632;11.576;2022-08-30T06:58:17;19.70;42.90
26035;DHT22;13809;48.632;11.576;2022-08-30T07:03:22;19.80;43.10
26035;DHT22;13809;48.632;11.576;2022-08-30T07:08:26;19.90;44.10
26035;DHT22;13809;48.632;11.576;2022-08-30T07:13:30;20.10;43.60
26035;DHT22;13809;48.632;11.576;2022-08-30T07:24:36;20.40;45.20
26035;DHT22;13809;48.632;11.576;2022-08-30T07:29:40;20.60;45.10
26035;DHT22;13809;48.632;11.576;2022-08-30T07:34:43;20.80;44.50
26035;DHT22;13809;48.632;11.576;2022-08-30T07:39:49;21.00;44.30
26035;DHT22;13809;48.632;11.576;2022-08-30T07:44:52;21.20;44.90
26035;DHT22;13809;48.632;11.576;2022-08-30T07:49:58;21.40;44.40
26035;DHT22;13809;48.632;11.576;2022-08-30T07:55:04;21.70;44.80
26035;DHT22;13809;48.632;11.576;2022-08-30T08:00:09;21.90;45.20
26035;DHT22;13809;48.632;11.576;2022-08-30T08:05:12;22.20;45.00
26035;DHT22;13809;48.632;11.576;2022-08-30T08:10:34;22.40;44.70
26035;DHT22;13809;48.632;11.576;2022-08-30T08:15:37;22.70;45.40
26035;DHT22;13809;48.632;11.576;2022-08-30T08:20:41;22.90;44.40
26035;DHT22;13809;48.632;11.576;2022-08-30T08:25:45;23.20;44.20
26035;DHT22;13809;48.632;11.576;2022-08-30T08:30:48;23.50;44.20
26035;DHT22;13809;48.632;11.576;2022-08-30T08:35:52;23.80;44.20
26035;DHT22;13809;48.632;11.576;2022-08-30T08:41:02;24.00;44.00
26035;DHT22;13809;48.632;11.576;2022-08-30T08:46:12;24.30;44.40
26035;DHT22;13809;48.632;11.576;2022-08-30T08:51:19;24.60;43.90
26035;DHT22;13809;48.632;11.576;2022-08-30T08:56:43;25.00;43.30
26035;DHT22;13809;48.632;11.576;2022-08-30T09:01:47;25.30;42.60
26035;DHT22;13809;48.632;11.576;2022-08-30T09:06:55;25.60;42.20
26035;DHT22;13809;48.632;11.576;2022-08-30T09:12:01;25.80;41.40
26035;DHT22;13809;48.632;11.576;2022-08-30T09:17:05;26.10;41.60
26035;DHT22;13809;48.632;11.576;2022-08-30T09:22:23;26.30;41.20
26035;DHT22;13809;48.632;11.576;2022-08-30T09:27:32;26.60;40.20
26035;DHT22;13809;48.632;11.576;2022-08-30T09:32:38;26.90;38.70
26035;DHT22;13809;48.632;11.576;2022-08-30T09:37:46;27.10;39.00
26035;DHT22;13809;48.632;11.576;2022-08-30T09:43:09;27.30;37.90
26035;DHT22;13809;48.632;11.576;2022-08-30T09:48:28;27.50;38.10
26035;DHT22;13809;48.632;11.576;2022-08-30T09:53:34;27.70;36.70
26035;DHT22;13809;48.632;11.576;2022-08-30T09:58:51;28.00;36.80
26035;DHT22;13809;48.632;11.576;2022-08-30T10:04:06;28.10;35.30
26035;DHT22;13809;48.632;11.576;2022-08-30T10:09:22;28.30;34.90
26035;DHT22;13809;48.632;11.576;2022-08-30T10:14:53;28.40;34.70
26035;DHT22;13809;48.632;11.576;2022-08-30T10:20:15;28.50;34.40
26035;DHT22;13809;48.632;11.576;2022-08-30T10:25:23;28.70;32.90
26035;DHT22;13809;48.632;11.576;2022-08-30T10:30:28;28.90;32.10
26035;DHT22;13809;48.632;11.576;2022-08-30T10:35:37;29.10;32.10
26035;DHT22;13809;48.632;11.576;2022-08-30T10:40:47;29.30;31.10
26035;DHT22;13809;48.632;11.576;2022-08-30T10:46:15;29.40;31.50
26035;DHT22;13809;48.632;11.576;2022-08-30T10:51:25;29.60;31.30
26035;DHT22;13809;48.632;11.576;2022-08-30T10:56:30;29.60;30.60
26035;DHT22;13809;48.632;11.576;2022-08-30T11:01:50;29.60;31.30
26035;DHT22;13809;48.632;11.576;2022-08-30T11:07:05;29.60;30.00
26035;DHT22;13809;48.632;11.576;2022-08-30T11:12:23;29.50;29.40
26035;DHT22;13809;48.632;11.576;2022-08-30T11:17:33;29.40;29.90
26035;DHT22;13809;48.632;11.576;2022-08-30T11:22:37;29.40;29.30
26035;DHT22;13809;48.632;11.576;2022-08-30T11:27:46;29.50;31.00
26035;DHT22;13809;48.632;11.576;2022-08-30T11:33:01;29.60;29.70
26035;DHT22;13809;48.632;11.576;2022-08-30T11:38:19;29.70;29.10
26035;DHT22;13809;48.632;11.576;2022-08-30T11:43:48;29.70;29.70
26035;DHT22;13809;48.632;11.576;2022-08-30T11:48:59;29.70;29.30
26035;DHT22;13809;48.632;11.576;2022-08-30T11:54:14;29.80;28.20
26035;DHT22;13809;48.632;11.576;2022-08-30T11:59:26;29.80;27.70
26035;DHT22;13809;48.632;11.576;2022-08-30T12:04:43;29.80;27.50
26035;DHT22;13809;48.632;11.576;2022-08-30T12:10:04;29.90;27.50
26035;DHT22;13809;48.632;11.576;2022-08-30T12:20:48;30.00;27.70
26035;DHT22;13809;48.632;11.576;2022-08-30T12:26:08;30.00;27.00
26035;DHT22;13809;48.632;11.576;2022-08-30T12:31:15;29.90;26.80
26035;DHT22;13809;48.632;11.576;2022-08-30T12:36:33;30.00;26.90
26035;DHT22;13809;48.632;11.576;2022-08-30T12:41:37;30.10;26.30
26035;DHT22;13809;48.632;11.576;2022-08-30T12:46:47;30.20;26.70
26035;DHT22;13809;48.632;11.576;2022-08-30T12:51:53;30.20;26.20
26035;DHT22;13809;48.632;11.576;2022-08-30T12:57:00;30.30;25.80
26035;DHT22;13809;48.632;11.576;2022-08-30T13:02:26;30.40;25.70
26035;DHT22;13809;48.632;11.576;2022-08-30T13:07:34;30.50;25.80
26035;DHT22;13809;48.632;11.576;2022-08-30T13:12:37;30.50;25.30
26035;DHT22;13809;48.632;11.576;2022-08-30T13:17:41;30.50;26.00
26035;DHT22;13809;48.632;11.576;2022-08-30T13:23:02;30.30;25.70
26035;DHT22;13809;48.632;11.576;2022-08-30T13:28:06;30.20;25.80
26035;DHT22;13809;48.632;11.576;2022-08-30T13:33:11;30.20;25.50
26035;DHT22;13809;48.632;11.576;2022-08-30T13:38:15;30.30;25.50
26035;DHT22;13809;48.632;11.576;2022-08-30T13:43:18;30.20;25.10
26035;DHT22;13809;48.632;11.576;2022-08-30T13:48:22;30.20;25.30
26035;DHT22;13809;48.632;11.576;2022-08-30T13:53:27;30.20;25.30
26035;DHT22;13809;48.632;11.576;2022-08-30T13:58:50;30.20;24.90
26035;DHT22;13809;48.632;11.576;2022-08-30T14:03:53;30.20;25.30
26035;DHT22;13809;48.632;11.576;2022-08-30T14:09:18;30.30;25.20
26035;DHT22;13809;48.632;11.576;2022-08-30T14:14:22;30.30;24.70
26035;DHT22;13809;48.632;11.576;2022-08-30T14:19:43;30.40;25.00
26035;DHT22;13809;48.632;11.576;2022-08-30T14:24:49;30.40;24.70
26035;DHT22;13809;48.632;11.576;2022-08-30T14:29:56;30.30;23.90
26035;DHT22;13809;48.632;11.576;2022-08-30T14:34:59;30.20;24.70
26035;DHT22;13809;48.632;11.576;2022-08-30T14:40:07;30.20;24.70
26035;DHT22;13809;48.632;11.576;2022-08-30T14:45:10;30.20;24.20
26035;DHT22;13809;48.632;11.576;2022-08-30T14:50:14;30.30;24.70
26035;DHT22;13809;48.632;11.576;2022-08-30T14:55:19;30.30;24.00
26035;DHT22;13809;48.632;11.576;2022-08-30T15:00:23;30.40;24.00
26035;DHT22;13809;48.632;11.576;2022-08-30T15:05:26;30.50;24.20
26035;DHT22;13809;48.632;11.576;2022-08-30T15:10:31;30.50;24.10
26035;DHT22;13809;48.632;11.576;2022-08-30T15:15:34;30.60;23.80
26035;DHT22;13809;48.632;11.576;2022-08-30T15:20:44;30.60;24.50
26035;DHT22;13809;48.632;11.576;2022-08-30T15:25:48;30.60;24.10
26035;DHT22;13809;48.632;11.576;2022-08-30T15:30:51;30.60;24.40
26035;DHT22;13809;48.632;11.576;2022-08-30T15:35:59;30.50;24.70
26035;DHT22;13809;48.632;11.576;2022-08-30T15:41:08;30.40;24.50
26035;DHT22;13809;48.632;11.576;2022-08-30T15:46:20;30.30;24.60
26035;DHT22;13809;48.632;11.576;2022-08-30T15:51:31;30.30;24.40
26035;DHT22;13809;48.632;11.576;2022-08-30T15:56:47;30.30;24.80
26035;DHT22;13809;48.632;11.576;2022-08-30T16:01:53;30.30;24.60
26035;DHT22;13809;48.632;11.576;2022-08-30T16:06:58;30.30;24.80
26035;DHT22;13809;48.632;11.576;2022-08-30T16:12:04;30.30;24.70
26035;DHT22;13809;48.632;11.576;2022-08-30T16:17:08;30.20;24.10
26035;DHT22;13809;48.632;11.576;2022-08-30T16:22:12;30.20;24.40
26035;DHT22;13809;48.632;11.576;2022-08-30T16:27:24;30.20;24.30
26035;DHT22;13809;48.632;11.576;2022-08-30T16:32:27;30.20;24.30
26035;DHT22;13809;48.632;11.576;2022-08-30T16:37:30;30.10;24.50
26035;DHT22;13809;48.632;11.576;2022-08-30T16:42:35;30.10;24.40
26035;DHT22;13809;48.632;11.576;2022-08-30T16:47:38;30.10;24.30
26035;DHT22;13809;48.632;11.576;2022-08-30T16:52:41;30.00;24.50
26035;DHT22;13809;48.632;11.576;2022-08-30T16:57:46;30.00;24.50
26035;DHT22;13809;48.632;11.576;2022-08-30T17:02:52;29.90;24.50
26035;DHT22;13809;48.632;11.576;2022-08-30T17:07:55;29.90;24.90
26035;DHT22;13809;48.632;11.576;2022-08-30T17:13:00;29.80;25.10
26035;DHT22;13809;48.632;11.576;2022-08-30T17:18:05;29.70;25.10
26035;DHT22;13809;48.632;11.576;2022-08-30T17:23:09;29.60;25.10
26035;DHT22;13809;48.632;11.576;2022-08-30T17:28:13;29.50;25.30
26035;DHT22;13809;48.632;11.576;2022-08-30T17:33:16;29.40;25.20
26035;DHT22;13809;48.632;11.576;2022-08-30T17:38:20;29.40;25.40
26035;DHT22;13809;48.632;11.576;2022-08-30T17:43:25;29.20;25.40
26035;DHT22;13809;48.632;11.576;2022-08-30T17:48:29;29.20;25.60
26035;DHT22;13809;48.632;11.576;2022-08-30T17:53:32;29.00;25.40
26035;DHT22;13809;48.632;11.576;2022-08-30T17:58:43;28.90;25.50
26035;DHT22;13809;48.632;11.576;2022-08-30T18:03:50;28.80;25.60
26035;DHT22;13809;48.632;11.576;2022-08-30T18:09:03;28.70;26.00
26035;DHT22;13809;48.632;11.576;2022-08-30T18:14:09;28.70;26.20
26035;DHT22;13809;48.632;11.576;2022-08-30T18:19:14;28.60;26.40
26035;DHT22;13809;48.632;11.576;2022-08-30T18:24:17;28.40;26.30
26035;DHT22;13809;48.632;11.576;2022-08-30T18:29:22;28.30;26.40
26035;DHT22;13809;48.632;11.576;2022-08-30T18:34:32;28.20;26.70
26035;DHT22;13809;48.632;11.576;2022-08-30T18:39:35;28.00;26.50
26035;DHT22;13809;48.632;11.576;2022-08-30T18:44:40;27.80;26.60
26035;DHT22;13809;48.632;11.576;2022-08-30T18:49:44;27.60;27.00
26035;DHT22;13809;48.632;11.576;2022-08-30T18:54:47;27.50;27.10
26035;DHT22;13809;48.632;11.576;2022-08-30T18:59:55;27.30;27.20
26035;DHT22;13809;48.632;11.576;2022-08-30T19:04:58;27.20;27.60
26035;DHT22;13809;48.632;11.576;2022-08-30T19:10:02;27.10;28.20
26035;DHT22;13809;48.632;11.576;2022-08-30T19:15:08;27.00;27.70
26035;DHT22;13809;48.632;11.576;2022-08-30T19:20:15;26.90;28.00
26035;DHT22;13809;48.632;11.576;2022-08-30T19:25:20;26.80;27.90
26035;DHT22;13809;48.632;11.576;2022-08-30T19:30:26;26.80;28.00
26035;DHT22;13809;48.632;11.576;2022-08-30T19:35:31;26.60;28.20
26035;DHT22;13809;48.632;11.576;2022-08-30T19:40:34;26.60;28.10
26035;DHT22;13809;48.632;11.576;2022-08-30T19:45:38;26.50;28.30
26035;DHT22;13809;48.632;11.576;2022-08-30T19:50:42;26.40;28.50
26035;DHT22;13809;48.632;11.576;2022-08-30T19:55:45;26.30;28.50
26035;DHT22;13809;48.632;11.576;2022-08-30T20:00:50;26.20;28.60
26035;DHT22;13809;48.632;11.576;2022-08-30T20:06:11;26.10;29.00
26035;DHT22;13809;48.632;11.576;2022-08-30T20:11:17;26.00;28.70
26035;DHT22;13809;48.632;11.576;2022-08-30T20:16:23;25.90;29.10
26035;DHT22;13809;48.632;11.576;2022-08-30T20:21:38;25.70;29.00
26035;DHT22;13809;48.632;11.576;2022-08-30T20:26:42;25.60;29.00
26035;DHT22;13809;48.632;11.576;2022-08-30T20:31:46;25.50;28.90
26035;DHT22;13809;48.632;11.576;2022-08-30T20:36:50;25.40;29.10
26035;DHT22;13809;48.632;11.576;2022-08-30T20:41:56;25.40;29.10
26035;DHT22;13809;48.632;11.576;2022-08-30T20:47:00;25.30;29.00
26035;DHT22;13809;48.632;11.576;2022-08-30T20:52:04;25.20;29.40
26035;DHT22;13809;48.632;11.576;2022-08-30T20:57:10;25.10;29.30
26035;DHT22;13809;48.632;11.576;2022-08-30T21:02:16;24.90;29.40
26035;DHT22;13809;48.632;11.576;2022-08-30T21:07:19;24.90;29.90
26035;DHT22;13809;48.632;11.576;2022-08-30T21:12:22;24.70;29.70
26035;DHT22;13809;48.632;11.576;2022-08-30T21:17:27;24.60;29.80
26035;DHT22;13809;48.632;11.576;2022-08-30T21:22:31;24.50;30.30
26035;DHT22;13809;48.632;11.576;2022-08-30T21:27:34;24.40;30.10
26035;DHT22;13809;48.632;11.576;2022-08-30T21:32:39;24.30;30.10
26035;DHT22;13809;48.632;11.576;2022-08-30T21:37:42;24.20;30.90
26035;DHT22;13809;48.632;11.576;2022-08-30T21:42:46;24.10;30.40
26035;DHT22;13809;48.632;11.576;2022-08-30T21:47:50;24.00;30.80
26035;DHT22;13809;48.632;11.576;2022-08-30T21:52:54;23.90;31.20
26035;DHT22;13809;48.632;11.576;2022-08-30T21:57:57;23.90;30.90
26035;DHT22;13809;48.632;11.576;2022-08-30T22:03:02;23.80;30.80
26035;DHT22;13809;48.632;11.576;2022-08-30T22:08:05;23.70;31.30
26035;DHT22;13809;48.632;11.576;2022-08-30T22:13:08;23.70;31.40
26035;DHT22;13809;48.632;11.576;2022-08-30T22:18:15;23.60;31.20
26035;DHT22;13809;48.632;11.576;2022-08-30T22:23:18;23.60;31.70
26035;DHT22;13809;48.632;11.576;2022-08-30T22:28:22;23.50;31.40
26035;DHT22;13809;48.632;11.576;2022-08-30T22:33:26;23.50;31.60
26035;DHT22;13809;48.632;11.576;2022-08-30T22:38:29;23.40;32.00
26035;DHT22;13809;48.632;11.576;2022-08-30T22:43:33;23.40;31.80
26035;DHT22;13809;48.632;11.576;2022-08-30T22:48:39;23.30;31.80
26035;DHT22;13809;48.632;11.576;2022-08-30T22:53:44;23.30;32.70
26035;DHT22;13809;48.632;11.576;2022-08-30T22:58:48;23.20;32.10
26035;DHT22;13809;48.632;11.576;2022-08-30T23:03:54;23.10;32.10
26035;DHT22;13809;48.632;11.576;2022-08-30T23:08:58;23.10;32.90
26035;DHT22;13809;48.632;11.576;2022-08-30T23:14:02;23.00;32.60
26035;DHT22;13809;48.632;11.576;2022-08-30T23:19:07;23.00;32.80
26035;DHT22;13809;48.632;11.576;2022-08-30T23:24:10;22.90;33.20
26035;DHT22;13809;48.632;11.576;2022-08-30T23:29:31;22.80;32.80
26035;DHT22;13809;48.632;11.576;2022-08-30T23:34:53;22.70;33.30
26035;DHT22;13809;48.632;11.576;2022-08-30T23:40:14;22.70;33.60
26035;DHT22;13809;48.632;11.576;2022-08-30T23:45:35;22.70;33.50
26035;DHT22;13809;48.632;11.576;2022-08-30T23:50:57;22.70;33.70
26035;DHT22;13809;48.632;11.576;2022-08-30T23:56:23;22.70;33.90
